< < Back
Terminal Aerodrome Forecast


Current Version              Previous Versions:   1  2  3  4  5  6  7  8  9  

Terminal Aerodrome Forecast

143
FTUS42 KCHS 231735
TAFCHS
TAF
KCHS 231735Z 2318/2418 21006KT P6SM SCT040
     FM240300 VRB03KT P6SM SKC
     FM240900 VRB03KT P6SM SCT050
     FM241600 20007KT P6SM SCT040=



Latest METAR

511
SAUS80 KWBC 241200 CCA
MTRCHS
METAR KCHS 241156Z 24007KT 10SM FEW040 FEW250 28/24 A3003 RMK AO2 SLP169
TCU DSNT SW T02780239 10278 20256 53011 $


USA.gov is the U.S. government's official web portal to all federal, state and local government web resources and services.